sensor_id;sensor_type;location;lat;lon;timestamp;pressure;altitude;pressure_sealevel;temperature;humidity
10618;BME280;5356;43.526;26.534;2023-12-20T00:03:03;99399.94;;;3.86;100.00
10618;BME280;5356;43.526;26.534;2023-12-20T00:05:34;99396.91;;;3.97;100.00
10618;BME280;5356;43.526;26.534;2023-12-20T00:08:11;99403.16;;;3.96;100.00
10618;BME280;5356;43.526;26.534;2023-12-20T00:10:37;99395.44;;;3.94;100.00
10618;BME280;5356;43.526;26.534;2023-12-20T00:13:03;99392.16;;;3.92;100.00
10618;BME280;5356;43.526;26.534;2023-12-20T00:15:35;99402.53;;;3.94;100.00
10618;BME280;5356;43.526;26.534;2023-12-20T00:18:30;99403.16;;;3.96;100.00
10618;BME280;5356;43.526;26.534;2023-12-20T00:24:45;99404.47;;;4.00;100.00
10618;BME280;5356;43.526;26.534;2023-12-20T00:27:27;99398.25;;;3.93;100.00
10618;BME280;5356;43.526;26.534;2023-12-20T00:29:53;99394.00;;;3.83;100.00
10618;BME280;5356;43.526;26.534;2023-12-20T00:32:30;99394.34;;;3.80;100.00
10618;BME280;5356;43.526;26.534;2023-12-20T00:35:11;99393.03;;;3.76;100.00
10618;BME280;5356;43.526;26.534;2023-12-20T00:40:47;99381.53;;;3.69;100.00
10618;BME280;5356;43.526;26.534;2023-12-20T00:43:15;99375.81;;;3.66;100.00
10618;BME280;5356;43.526;26.534;2023-12-20T00:45:41;99375.31;;;3.62;100.00
10618;BME280;5356;43.526;26.534;2023-12-20T00:48:06;99383.19;;;3.70;100.00
10618;BME280;5356;43.526;26.534;2023-12-20T00:50:33;99375.59;;;3.75;100.00
10618;BME280;5356;43.526;26.534;2023-12-20T00:53:04;99371.78;;;3.78;100.00
10618;BME280;5356;43.526;26.534;2023-12-20T00:55:52;99373.63;;;3.77;100.00
10618;BME280;5356;43.526;26.534;2023-12-20T00:58:56;99365.06;;;3.75;100.00
10618;BME280;5356;43.526;26.534;2023-12-20T01:01:49;99356.03;;;3.70;100.00
10618;BME280;5356;43.526;26.534;2023-12-20T01:04:14;99355.88;;;3.63;100.00
10618;BME280;5356;43.526;26.534;2023-12-20T01:06:40;99351.13;;;3.58;100.00
10618;BME280;5356;43.526;26.534;2023-12-20T01:09:05;99355.22;;;3.61;100.00
10618;BME280;5356;43.526;26.534;2023-12-20T01:11:31;99347.00;;;3.56;100.00
10618;BME280;5356;43.526;26.534;2023-12-20T01:13:56;99333.50;;;3.59;100.00
10618;BME280;5356;43.526;26.534;2023-12-20T01:16:27;99336.47;;;3.56;100.00
10618;BME280;5356;43.526;26.534;2023-12-20T01:18:52;99333.50;;;3.59;100.00
10618;BME280;5356;43.526;26.534;2023-12-20T01:21:28;99325.09;;;3.64;100.00
10618;BME280;5356;43.526;26.534;2023-12-20T01:27:00;99313.78;;;3.55;100.00
10618;BME280;5356;43.526;26.534;2023-12-20T01:29:27;99309.78;;;3.59;100.00
10618;BME280;5356;43.526;26.534;2023-12-20T01:31:53;99307.66;;;3.63;100.00
10618;BME280;5356;43.526;26.534;2023-12-20T01:34:45;99300.25;;;3.58;100.00
10618;BME280;5356;43.526;26.534;2023-12-20T01:37:42;99308.00;;;3.59;100.00
10618;BME280;5356;43.526;26.534;2023-12-20T01:41:02;99287.78;;;3.52;100.00
10618;BME280;5356;43.526;26.534;2023-12-20T01:44:35;99286.78;;;3.53;100.00
10618;BME280;5356;43.526;26.534;2023-12-20T01:46:54;99267.38;;;3.54;100.00
10618;BME280;5356;43.526;26.534;2023-12-20T01:49:20;99273.94;;;3.58;100.00
10618;BME280;5356;43.526;26.534;2023-12-20T01:51:47;99265.72;;;3.53;100.00
10618;BME280;5356;43.526;26.534;2023-12-20T01:54:13;99258.63;;;3.53;100.00
10618;BME280;5356;43.526;26.534;2023-12-20T01:56:39;99254.50;;;3.59;100.00
10618;BME280;5356;43.526;26.534;2023-12-20T01:59:06;99251.84;;;3.59;100.00
10618;BME280;5356;43.526;26.534;2023-12-20T02:01:32;99244.97;;;3.58;100.00
10618;BME280;5356;43.526;26.534;2023-12-20T02:03:58;99249.53;;;3.64;100.00
10618;BME280;5356;43.526;26.534;2023-12-20T02:06:52;99238.63;;;3.67;100.00
10618;BME280;5356;43.526;26.534;2023-12-20T02:09:18;99239.66;;;3.66;100.00
10618;BME280;5356;43.526;26.534;2023-12-20T02:11:43;99233.59;;;3.57;100.00
10618;BME280;5356;43.526;26.534;2023-12-20T02:14:29;99233.66;;;3.49;100.00
10618;BME280;5356;43.526;26.534;2023-12-20T02:16:55;99234.00;;;3.46;100.00
10618;BME280;5356;43.526;26.534;2023-12-20T02:19:34;99236.31;;;3.41;100.00
10618;BME280;5356;43.526;26.534;2023-12-20T02:22:40;99223.31;;;3.40;100.00
10618;BME280;5356;43.526;26.534;2023-12-20T02:25:42;99219.09;;;3.30;100.00
10618;BME280;5356;43.526;26.534;2023-12-20T02:28:30;99214.97;;;3.28;100.00
10618;BME280;5356;43.526;26.534;2023-12-20T02:31:04;99215.47;;;3.31;100.00
10618;BME280;5356;43.526;26.534;2023-12-20T02:33:31;99200.50;;;3.32;100.00
10618;BME280;5356;43.526;26.534;2023-12-20T02:35:56;99198.03;;;3.30;100.00
10618;BME280;5356;43.526;26.534;2023-12-20T02:38:29;99195.41;;;3.30;100.00
10618;BME280;5356;43.526;26.534;2023-12-20T02:40:56;99189.31;;;3.30;100.00
10618;BME280;5356;43.526;26.534;2023-12-20T02:43:33;99200.16;;;3.35;100.00
10618;BME280;5356;43.526;26.534;2023-12-20T02:46:08;99193.06;;;3.35;100.00
10618;BME280;5356;43.526;26.534;2023-12-20T02:48:41;99188.28;;;3.39;100.00
10618;BME280;5356;43.526;26.534;2023-12-20T02:51:07;99191.78;;;3.31;100.00
10618;BME280;5356;43.526;26.534;2023-12-20T02:53:32;99185.41;;;3.26;100.00
10618;BME280;5356;43.526;26.534;2023-12-20T02:55:58;99178.47;;;3.25;100.00
10618;BME280;5356;43.526;26.534;2023-12-20T02:58:23;99186.69;;;3.30;100.00
10618;BME280;5356;43.526;26.534;2023-12-20T03:00:49;99179.47;;;3.24;100.00
10618;BME280;5356;43.526;26.534;2023-12-20T03:03:16;99188.31;;;3.31;100.00
10618;BME280;5356;43.526;26.534;2023-12-20T03:05:41;99180.25;;;3.32;100.00
10618;BME280;5356;43.526;26.534;2023-12-20T03:15:52;99170.41;;;3.26;100.00
10618;BME280;5356;43.526;26.534;2023-12-20T03:18:22;99169.75;;;3.24;100.00
10618;BME280;5356;43.526;26.534;2023-12-20T03:20:48;99162.88;;;3.23;100.00
10618;BME280;5356;43.526;26.534;2023-12-20T03:23:51;99162.03;;;3.23;100.00
10618;BME280;5356;43.526;26.534;2023-12-20T03:26:16;99158.72;;;3.29;100.00
10618;BME280;5356;43.526;26.534;2023-12-20T03:28:42;99163.16;;;3.28;100.00
10618;BME280;5356;43.526;26.534;2023-12-20T03:31:09;99155.78;;;3.24;100.00
10618;BME280;5356;43.526;26.534;2023-12-20T03:33:34;99146.78;;;3.18;100.00
10618;BME280;5356;43.526;26.534;2023-12-20T03:36:24;99140.19;;;3.14;100.00
10618;BME280;5356;43.526;26.534;2023-12-20T03:38:49;99138.22;;;3.16;100.00
10618;BME280;5356;43.526;26.534;2023-12-20T03:41:17;99131.31;;;3.15;100.00
10618;BME280;5356;43.526;26.534;2023-12-20T03:43:55;99132.38;;;3.06;100.00
10618;BME280;5356;43.526;26.534;2023-12-20T03:46:59;99134.81;;;3.07;100.00
10618;BME280;5356;43.526;26.534;2023-12-20T03:51:58;99119.38;;;3.04;100.00
10618;BME280;5356;43.526;26.534;2023-12-20T03:54:25;99127.38;;;3.11;100.00
10618;BME280;5356;43.526;26.534;2023-12-20T03:56:51;99114.88;;;3.13;100.00
10618;BME280;5356;43.526;26.534;2023-12-20T04:01:51;99105.34;;;3.12;100.00
10618;BME280;5356;43.526;26.534;2023-12-20T04:06:52;99097.75;;;3.17;100.00
10618;BME280;5356;43.526;26.534;2023-12-20T04:14:42;99091.50;;;3.18;100.00
10618;BME280;5356;43.526;26.534;2023-12-20T04:17:07;99089.31;;;3.22;100.00
10618;BME280;5356;43.526;26.534;2023-12-20T04:19:33;99082.25;;;3.22;100.00
10618;BME280;5356;43.526;26.534;2023-12-20T04:21:58;99074.19;;;3.24;100.00
10618;BME280;5356;43.526;26.534;2023-12-20T04:24:25;99082.53;;;3.27;100.00
10618;BME280;5356;43.526;26.534;2023-12-20T04:26:50;99075.50;;;3.20;100.00
10618;BME280;5356;43.526;26.534;2023-12-20T04:32:41;99077.28;;;3.04;100.00
10618;BME280;5356;43.526;26.534;2023-12-20T04:35:07;99070.19;;;3.05;100.00
10618;BME280;5356;43.526;26.534;2023-12-20T04:37:33;99076.56;;;3.10;100.00
10618;BME280;5356;43.526;26.534;2023-12-20T04:40:01;99074.06;;;3.17;100.00
10618;BME280;5356;43.526;26.534;2023-12-20T04:42:27;99062.09;;;3.14;100.00
10618;BME280;5356;43.526;26.534;2023-12-20T04:44:56;99055.72;;;3.09;100.00
10618;BME280;5356;43.526;26.534;2023-12-20T04:47:21;99061.03;;;3.01;100.00
10618;BME280;5356;43.526;26.534;2023-12-20T04:52:46;99056.47;;;2.95;100.00
10618;BME280;5356;43.526;26.534;2023-12-20T04:55:13;99061.72;;;2.95;100.00
10618;BME280;5356;43.526;26.534;2023-12-20T04:57:40;99051.66;;;2.98;100.00
10618;BME280;5356;43.526;26.534;2023-12-20T05:00:06;99055.09;;;2.99;100.00
10618;BME280;5356;43.526;26.534;2023-12-20T05:02:34;99055.59;;;2.94;100.00
10618;BME280;5356;43.526;26.534;2023-12-20T05:05:02;99062.53;;;2.95;100.00
10618;BME280;5356;43.526;26.534;2023-12-20T05:07:27;99062.66;;;3.02;100.00
10618;BME280;5356;43.526;26.534;2023-12-20T05:09:53;99060.00;;;3.02;100.00
10618;BME280;5356;43.526;26.534;2023-12-20T05:12:19;99068.75;;;2.94;100.00
10618;BME280;5356;43.526;26.534;2023-12-20T05:14:45;99066.09;;;3.02;100.00
10618;BME280;5356;43.526;26.534;2023-12-20T05:17:11;99051.66;;;2.98;100.00
10618;BME280;5356;43.526;26.534;2023-12-20T05:19:36;99053.88;;;2.86;100.00
10618;BME280;5356;43.526;26.534;2023-12-20T05:22:03;99059.13;;;2.86;100.00
10618;BME280;5356;43.526;26.534;2023-12-20T05:24:29;99060.44;;;2.82;100.00
10618;BME280;5356;43.526;26.534;2023-12-20T05:26:54;99051.84;;;2.88;100.00
10618;BME280;5356;43.526;26.534;2023-12-20T05:29:20;99050.41;;;2.86;100.00
10618;BME280;5356;43.526;26.534;2023-12-20T05:31:49;99051.84;;;2.88;100.00
10618;BME280;5356;43.526;26.534;2023-12-20T05:34:16;99046.44;;;2.90;100.00
10618;BME280;5356;43.526;26.534;2023-12-20T05:36:41;99052.34;;;2.92;100.00
10618;BME280;5356;43.526;26.534;2023-12-20T05:39:07;99049.06;;;2.90;100.00
10618;BME280;5356;43.526;26.534;2023-12-20T05:41:33;99041.84;;;2.92;100.00
10618;BME280;5356;43.526;26.534;2023-12-20T05:44:00;99040.53;;;2.88;100.00
10618;BME280;5356;43.526;26.534;2023-12-20T05:46:38;99046.94;;;2.85;100.00
10618;BME280;5356;43.526;26.534;2023-12-20T05:49:06;99036.72;;;2.90;100.00
10618;BME280;5356;43.526;26.534;2023-12-20T05:51:48;99043.56;;;3.00;100.00
10618;BME280;5356;43.526;26.534;2023-12-20T05:54:16;99045.22;;;3.01;100.00
10618;BME280;5356;43.526;26.534;2023-12-20T05:56:41;99050.84;;;2.98;100.00
10618;BME280;5356;43.526;26.534;2023-12-20T05:59:16;99048.97;;;3.06;100.00
10618;BME280;5356;43.526;26.534;2023-12-20T06:01:42;99051.78;;;3.28;100.00
10618;BME280;5356;43.526;26.534;2023-12-20T06:04:07;99044.63;;;3.36;100.00
10618;BME280;5356;43.526;26.534;2023-12-20T06:06:33;99046.22;;;3.46;100.00
10618;BME280;5356;43.526;26.534;2023-12-20T06:09:18;99040.75;;;3.47;100.00
10618;BME280;5356;43.526;26.534;2023-12-20T06:11:44;99037.16;;;3.48;100.00
10618;BME280;5356;43.526;26.534;2023-12-20T06:14:10;99043.94;;;3.43;100.00
10618;BME280;5356;43.526;26.534;2023-12-20T06:16:35;99034.75;;;3.38;100.00
10618;BME280;5356;43.526;26.534;2023-12-20T06:19:02;99036.38;;;3.40;100.00
10618;BME280;5356;43.526;26.534;2023-12-20T06:21:37;99035.75;;;3.37;100.00
10618;BME280;5356;43.526;26.534;2023-12-20T06:24:02;99039.41;;;3.28;100.00
10618;BME280;5356;43.526;26.534;2023-12-20T06:26:28;99041.09;;;3.29;100.00
10618;BME280;5356;43.526;26.534;2023-12-20T06:28:53;99044.97;;;3.33;100.00
10618;BME280;5356;43.526;26.534;2023-12-20T06:31:20;99040.44;;;3.27;100.00
10618;BME280;5356;43.526;26.534;2023-12-20T06:33:46;99041.44;;;3.26;100.00
10618;BME280;5356;43.526;26.534;2023-12-20T06:36:13;99031.88;;;3.25;100.00
10618;BME280;5356;43.526;26.534;2023-12-20T06:38:39;99024.19;;;3.24;100.00
10618;BME280;5356;43.526;26.534;2023-12-20T06:41:04;99031.25;;;3.23;100.00
10618;BME280;5356;43.526;26.534;2023-12-20T06:43:31;99018.03;;;3.31;100.00
10618;BME280;5356;43.526;26.534;2023-12-20T14:31:18;98393.78;;;12.69;89.35
10618;BME280;5356;43.526;26.534;2023-12-20T14:33:43;98382.47;;;12.62;90.01
10618;BME280;5356;43.526;26.534;2023-12-20T14:36:09;98386.38;;;12.54;90.84
10618;BME280;5356;43.526;26.534;2023-12-20T14:38:34;98383.13;;;12.47;90.69
10618;BME280;5356;43.526;26.534;2023-12-20T14:41:00;98384.88;;;12.36;90.71
10618;BME280;5356;43.526;26.534;2023-12-20T14:43:28;98384.28;;;12.29;91.31
10618;BME280;5356;43.526;26.534;2023-12-20T14:45:53;98385.22;;;12.18;91.67
10618;BME280;5356;43.526;26.534;2023-12-20T14:48:19;98382.34;;;12.02;92.82
10618;BME280;5356;43.526;26.534;2023-12-20T14:50:46;98376.25;;;11.85;93.86
10618;BME280;5356;43.526;26.534;2023-12-20T14:53:14;98381.84;;;11.83;94.03
10618;BME280;5356;43.526;26.534;2023-12-20T14:55:41;98374.19;;;11.70;94.57
10618;BME280;5356;43.526;26.534;2023-12-20T14:58:07;98374.03;;;11.60;95.01
10618;BME280;5356;43.526;26.534;2023-12-20T15:00:32;98366.16;;;11.48;95.56
10618;BME280;5356;43.526;26.534;2023-12-20T15:02:59;98364.47;;;11.42;95.67
10618;BME280;5356;43.526;26.534;2023-12-20T15:05:24;98353.16;;;11.35;96.00
10618;BME280;5356;43.526;26.534;2023-12-20T15:07:50;98366.94;;;11.27;95.90
10618;BME280;5356;43.526;26.534;2023-12-20T15:10:15;98373.47;;;11.19;96.32
10618;BME280;5356;43.526;26.534;2023-12-20T15:12:42;98372.91;;;11.17;96.92
10618;BME280;5356;43.526;26.534;2023-12-20T15:15:08;98373.72;;;11.17;96.47
10618;BME280;5356;43.526;26.534;2023-12-20T15:17:35;98374.69;;;11.11;97.33
10618;BME280;5356;43.526;26.534;2023-12-20T15:20:01;98365.63;;;10.95;97.78
10618;BME280;5356;43.526;26.534;2023-12-20T15:22:27;98368.56;;;10.94;98.44
10618;BME280;5356;43.526;26.534;2023-12-20T15:24:53;98372.91;;;10.83;98.75
10618;BME280;5356;43.526;26.534;2023-12-20T15:27:20;98373.38;;;10.80;98.66
10618;BME280;5356;43.526;26.534;2023-12-20T15:29:45;98355.69;;;10.74;98.56
10618;BME280;5356;43.526;26.534;2023-12-20T15:32:10;98361.34;;;10.77;99.30
10618;BME280;5356;43.526;26.534;2023-12-20T15:34:36;98357.06;;;10.60;100.00
10618;BME280;5356;43.526;26.534;2023-12-20T15:37:01;98351.41;;;10.56;100.00
10618;BME280;5356;43.526;26.534;2023-12-20T15:39:27;98362.78;;;10.51;100.00
10618;BME280;5356;43.526;26.534;2023-12-20T15:41:52;98356.06;;;10.49;100.00
10618;BME280;5356;43.526;26.534;2023-12-20T15:44:25;98365.13;;;10.48;100.00
10618;BME280;5356;43.526;26.534;2023-12-20T15:54:11;98366.09;;;10.30;100.00
10618;BME280;5356;43.526;26.534;2023-12-20T15:56:37;98376.19;;;10.28;100.00
10618;BME280;5356;43.526;26.534;2023-12-20T15:59:03;98366.56;;;10.27;100.00
10618;BME280;5356;43.526;26.534;2023-12-20T16:01:29;98368.88;;;10.23;100.00
10618;BME280;5356;43.526;26.534;2023-12-20T16:03:56;98376.66;;;10.25;100.00
10618;BME280;5356;43.526;26.534;2023-12-20T16:06:41;98377.09;;;10.22;100.00
10618;BME280;5356;43.526;26.534;2023-12-20T16:09:08;98375.38;;;10.16;100.00
10618;BME280;5356;43.526;26.534;2023-12-20T16:11:50;98377.38;;;10.08;100.00
10618;BME280;5356;43.526;26.534;2023-12-20T16:14:15;98370.84;;;9.99;100.00
10618;BME280;5356;43.526;26.534;2023-12-20T16:16:48;98372.22;;;9.90;100.00
10618;BME280;5356;43.526;26.534;2023-12-20T16:19:14;98372.03;;;9.80;100.00
10618;BME280;5356;43.526;26.534;2023-12-20T16:21:39;98366.59;;;9.75;100.00
10618;BME280;5356;43.526;26.534;2023-12-20T16:24:05;98366.59;;;9.75;100.00
10618;BME280;5356;43.526;26.534;2023-12-20T16:26:31;98373.53;;;9.76;100.00
10618;BME280;5356;43.526;26.534;2023-12-20T16:28:56;98364.16;;;9.73;100.00
10618;BME280;5356;43.526;26.534;2023-12-20T16:31:22;98371.91;;;9.75;100.00
10618;BME280;5356;43.526;26.534;2023-12-20T16:33:48;98374.00;;;9.73;100.00
10618;BME280;5356;43.526;26.534;2023-12-20T16:36:13;98383.72;;;9.67;100.00
10618;BME280;5356;43.526;26.534;2023-12-20T16:38:39;98373.06;;;9.67;100.00
10618;BME280;5356;43.526;26.534;2023-12-20T16:41:04;98368.22;;;9.64;100.00
10618;BME280;5356;43.526;26.534;2023-12-20T16:43:30;98370.31;;;9.62;100.00
10618;BME280;5356;43.526;26.534;2023-12-20T16:45:59;98375.88;;;9.60;100.00
10618;BME280;5356;43.526;26.534;2023-12-20T16:48:25;98367.19;;;9.53;100.00
10618;BME280;5356;43.526;26.534;2023-12-20T16:50:51;98362.94;;;9.40;100.00
10618;BME280;5356;43.526;26.534;2023-12-20T16:53:16;98363.50;;;9.42;100.00
10618;BME280;5356;43.526;26.534;2023-12-20T16:55:42;98363.75;;;9.41;100.00
10618;BME280;5356;43.526;26.534;2023-12-20T16:58:12;98366.28;;;9.36;100.00
10618;BME280;5356;43.526;26.534;2023-12-20T17:00:38;98367.91;;;9.37;100.00
10618;BME280;5356;43.526;26.534;2023-12-20T17:03:05;98370.47;;;9.32;100.00
10618;BME280;5356;43.526;26.534;2023-12-20T17:05:30;98371.84;;;9.34;100.00
10618;BME280;5356;43.526;26.534;2023-12-20T17:07:56;98379.56;;;9.48;100.00
10618;BME280;5356;43.526;26.534;2023-12-20T17:10:21;98369.06;;;9.29;100.00
10618;BME280;5356;43.526;26.534;2023-12-20T17:12:47;98379.00;;;9.10;100.00
10618;BME280;5356;43.526;26.534;2023-12-20T17:15:12;98379.66;;;9.06;100.00
10618;BME280;5356;43.526;26.534;2023-12-20T17:17:38;98383.03;;;9.13;100.00
10618;BME280;5356;43.526;26.534;2023-12-20T17:20:04;98388.81;;;9.10;100.00
10618;BME280;5356;43.526;26.534;2023-12-20T17:22:29;98392.28;;;9.10;100.00
10618;BME280;5356;43.526;26.534;2023-12-20T17:24:55;98386.28;;;9.03;100.00
10618;BME280;5356;43.526;26.534;2023-12-20T17:27:20;98385.56;;;8.96;100.00
10618;BME280;5356;43.526;26.534;2023-12-20T17:29:46;98386.22;;;8.91;100.00
10618;BME280;5356;43.526;26.534;2023-12-20T17:32:11;98383.94;;;8.95;100.00
10618;BME280;5356;43.526;26.534;2023-12-20T17:34:37;98386.50;;;9.02;100.00
10618;BME280;5356;43.526;26.534;2023-12-20T17:37:02;98379.44;;;8.95;100.00
10618;BME280;5356;43.526;26.534;2023-12-20T17:39:28;98382.78;;;8.91;100.00
10618;BME280;5356;43.526;26.534;2023-12-20T17:42:14;98391.19;;;8.88;100.00
10618;BME280;5356;43.526;26.534;2023-12-20T17:44:39;98383.47;;;8.86;100.00
10618;BME280;5356;43.526;26.534;2023-12-20T17:47:05;98391.06;;;8.83;100.00
10618;BME280;5356;43.526;26.534;2023-12-20T17:49:31;98381.81;;;8.73;100.00
10618;BME280;5356;43.526;26.534;2023-12-20T17:51:56;98381.59;;;8.75;100.00
10618;BME280;5356;43.526;26.534;2023-12-20T17:54:22;98384.13;;;8.70;100.00
10618;BME280;5356;43.526;26.534;2023-12-20T17:56:48;98381.00;;;8.61;100.00
10618;BME280;5356;43.526;26.534;2023-12-20T17:59:16;98374.63;;;8.62;100.00
10618;BME280;5356;43.526;26.534;2023-12-20T18:01:44;98378.78;;;8.58;100.00
10618;BME280;5356;43.526;26.534;2023-12-20T18:04:12;98368.63;;;8.37;100.00
10618;BME280;5356;43.526;26.534;2023-12-20T18:06:38;98371.97;;;8.32;100.00
10618;BME280;5356;43.526;26.534;2023-12-20T18:15:39;98367.59;;;8.07;100.00
10618;BME280;5356;43.526;26.534;2023-12-20T18:21:17;98369.31;;;8.02;100.00
10618;BME280;5356;43.526;26.534;2023-12-20T18:23:51;98372.47;;;8.10;100.00
10618;BME280;5356;43.526;26.534;2023-12-20T18:27:21;98362.81;;;7.98;100.00
10618;BME280;5356;43.526;26.534;2023-12-20T18:40:36;98368.75;;;7.81;100.00
10618;BME280;5356;43.526;26.534;2023-12-20T18:49:18;98365.84;;;7.83;100.00
10618;BME280;5356;43.526;26.534;2023-12-20T18:52:36;98367.47;;;7.84;100.00
10618;BME280;5356;43.526;26.534;2023-12-20T18:55:24;98354.75;;;7.74;100.00
10618;BME280;5356;43.526;26.534;2023-12-20T18:58:12;98359.59;;;7.77;100.00
10618;BME280;5356;43.526;26.534;2023-12-20T19:00:48;98355.47;;;7.63;100.00
10618;BME280;5356;43.526;26.534;2023-12-20T19:03:57;98360.47;;;7.53;100.00
10618;BME280;5356;43.526;26.534;2023-12-20T19:06:45;98358.25;;;7.50;100.00
10618;BME280;5356;43.526;26.534;2023-12-20T19:10:35;98355.16;;;7.53;100.00
10618;BME280;5356;43.526;26.534;2023-12-20T19:15:44;98344.38;;;7.54;100.00
10618;BME280;5356;43.526;26.534;2023-12-20T19:24:51;98349.44;;;7.37;100.00
10618;BME280;5356;43.526;26.534;2023-12-20T19:34:18;98360.09;;;7.31;100.00
10618;BME280;5356;43.526;26.534;2023-12-20T19:36:57;98360.91;;;7.31;100.00
10618;BME280;5356;43.526;26.534;2023-12-20T19:42:52;98363.06;;;7.16;100.00
10618;BME280;5356;43.526;26.534;2023-12-20T19:49:39;98347.75;;;7.00;100.00
10618;BME280;5356;43.526;26.534;2023-12-20T19:52:11;98343.28;;;7.00;100.00
10618;BME280;5356;43.526;26.534;2023-12-20T19:54:45;98342.84;;;7.03;100.00
10618;BME280;5356;43.526;26.534;2023-12-20T19:57:31;98344.69;;;7.03;100.00
10618;BME280;5356;43.526;26.534;2023-12-20T20:00:30;98344.16;;;6.94;100.00
10618;BME280;5356;43.526;26.534;2023-12-20T20:03:21;98342.78;;;6.85;100.00
10618;BME280;5356;43.526;26.534;2023-12-20T20:08:39;98321.94;;;6.70;100.00
10618;BME280;5356;43.526;26.534;2023-12-20T20:24:22;98347.78;;;6.68;100.00
10618;BME280;5356;43.526;26.534;2023-12-20T20:27:14;98356.16;;;6.65;100.00
10618;BME280;5356;43.526;26.534;2023-12-20T20:35:27;98341.03;;;6.47;100.00
10618;BME280;5356;43.526;26.534;2023-12-20T20:47:38;98324.56;;;6.45;100.00
10618;BME280;5356;43.526;26.534;2023-12-20T20:53:07;98325.31;;;6.52;100.00
10618;BME280;5356;43.526;26.534;2023-12-20T20:58:53;98327.00;;;6.46;100.00
10618;BME280;5356;43.526;26.534;2023-12-20T21:01:19;98323.91;;;6.49;100.00
10618;BME280;5356;43.526;26.534;2023-12-20T21:03:45;98332.66;;;6.50;100.00
10618;BME280;5356;43.526;26.534;2023-12-20T21:06:10;98329.59;;;6.53;100.00
10618;BME280;5356;43.526;26.534;2023-12-20T21:08:36;98333.47;;;6.50;100.00
10618;BME280;5356;43.526;26.534;2023-12-20T21:11:01;98331.84;;;6.49;100.00
10618;BME280;5356;43.526;26.534;2023-12-20T21:13:27;98334.88;;;6.53;100.00
10618;BME280;5356;43.526;26.534;2023-12-20T21:15:54;98329.22;;;6.49;100.00
10618;BME280;5356;43.526;26.534;2023-12-20T21:18:19;98331.69;;;6.44;100.00
10618;BME280;5356;43.526;26.534;2023-12-20T21:20:45;98337.44;;;6.35;100.00
10618;BME280;5356;43.526;26.534;2023-12-20T21:23:13;98333.22;;;6.27;100.00
10618;BME280;5356;43.526;26.534;2023-12-20T21:25:39;98328.72;;;6.27;100.00
10618;BME280;5356;43.526;26.534;2023-12-20T21:28:04;98329.34;;;6.29;100.00
10618;BME280;5356;43.526;26.534;2023-12-20T21:30:30;98337.53;;;6.21;100.00
10618;BME280;5356;43.526;26.534;2023-12-20T21:33:02;98333.56;;;5.99;100.00
10618;BME280;5356;43.526;26.534;2023-12-20T21:35:28;98329.16;;;5.86;100.00
10618;BME280;5356;43.526;26.534;2023-12-20T21:37:53;98337.44;;;5.96;100.00
10618;BME280;5356;43.526;26.534;2023-12-20T21:40:19;98338.06;;;5.98;100.00
10618;BME280;5356;43.526;26.534;2023-12-20T21:42:44;98332.78;;;5.98;100.00
10618;BME280;5356;43.526;26.534;2023-12-20T21:45:11;98332.34;;;6.01;100.00
10618;BME280;5356;43.526;26.534;2023-12-20T21:47:36;98332.28;;;6.15;100.00
10618;BME280;5356;43.526;26.534;2023-12-20T21:50:02;98332.72;;;6.12;100.00
10618;BME280;5356;43.526;26.534;2023-12-20T21:52:35;98330.88;;;6.05;100.00
10618;BME280;5356;43.526;26.534;2023-12-20T21:55:24;98325.44;;;6.00;100.00
10618;BME280;5356;43.526;26.534;2023-12-20T21:58:09;98333.81;;;5.97;100.00
10618;BME280;5356;43.526;26.534;2023-12-20T22:10:19;98312.88;;;5.82;100.00
10618;BME280;5356;43.526;26.534;2023-12-20T22:13:04;98316.97;;;5.78;100.00
10618;BME280;5356;43.526;26.534;2023-12-20T22:15:33;98313.94;;;5.75;100.00
10618;BME280;5356;43.526;26.534;2023-12-20T22:17:59;98304.75;;;5.77;100.00
10618;BME280;5356;43.526;26.534;2023-12-20T22:20:24;98300.75;;;5.75;100.00
10618;BME280;5356;43.526;26.534;2023-12-20T22:22:50;98297.94;;;5.56;100.00
10618;BME280;5356;43.526;26.534;2023-12-20T22:25:15;98294.53;;;5.49;100.00
10618;BME280;5356;43.526;26.534;2023-12-20T22:27:41;98298.78;;;5.50;100.00
10618;BME280;5356;43.526;26.534;2023-12-20T22:30:07;98284.97;;;5.55;100.00
10618;BME280;5356;43.526;26.534;2023-12-20T22:32:34;98281.50;;;5.54;100.00
10618;BME280;5356;43.526;26.534;2023-12-20T22:34:59;98283.75;;;5.51;100.00
10618;BME280;5356;43.526;26.534;2023-12-20T22:37:24;98279.28;;;5.51;100.00
10618;BME280;5356;43.526;26.534;2023-12-20T22:39:50;98276.06;;;5.49;100.00
10618;BME280;5356;43.526;26.534;2023-12-20T22:42:16;98275.25;;;5.42;100.00
10618;BME280;5356;43.526;26.534;2023-12-20T22:44:42;98277.50;;;5.38;100.00
10618;BME280;5356;43.526;26.534;2023-12-20T22:47:08;98266.38;;;5.30;100.00
10618;BME280;5356;43.526;26.534;2023-12-20T22:49:35;98262.09;;;5.29;100.00
10618;BME280;5356;43.526;26.534;2023-12-20T22:52:01;98255.84;;;5.16;100.00
10618;BME280;5356;43.526;26.534;2023-12-20T22:54:26;98252.59;;;5.14;100.00
10618;BME280;5356;43.526;26.534;2023-12-20T22:56:52;98248.53;;;5.12;100.00
10618;BME280;5356;43.526;26.534;2023-12-20T22:59:20;98246.50;;;5.14;100.00
10618;BME280;5356;43.526;26.534;2023-12-20T23:01:45;98232.28;;;5.15;100.00
10618;BME280;5356;43.526;26.534;2023-12-20T23:04:13;98254.22;;;5.15;100.00
10618;BME280;5356;43.526;26.534;2023-12-20T23:06:38;98249.56;;;5.11;100.00
10618;BME280;5356;43.526;26.534;2023-12-20T23:09:03;98249.16;;;5.07;100.00
10618;BME280;5356;43.526;26.534;2023-12-20T23:11:29;98242.91;;;5.02;100.00
10618;BME280;5356;43.526;26.534;2023-12-20T23:13:54;98250.22;;;4.93;100.00
10618;BME280;5356;43.526;26.534;2023-12-20T23:16:20;98247.59;;;4.93;100.00
10618;BME280;5356;43.526;26.534;2023-12-20T23:18:46;98240.06;;;4.97;100.00
10618;BME280;5356;43.526;26.534;2023-12-20T23:21:14;98251.44;;;4.90;100.00
10618;BME280;5356;43.526;26.534;2023-12-20T23:23:40;98253.28;;;4.90;100.00
10618;BME280;5356;43.526;26.534;2023-12-20T23:26:05;98266.84;;;5.00;100.00